Weather observations for the past three days for
Midland, Midland International Airport
Imperial (Metric)
Date Time (cdt) Wind (mph) Vis. (mi.) Weather Sky Cond. Temperature (ºF) Relative Humidity Wind Chill (°F) Heat Index (°F) Pressure Precipitation (in)
Air Dwpt 6 hour altimeter (in) sea level (mb) 1 hr 3 hr 6 hr
Max. Min.
06 18:53 S 9 G 23 10.00 Fair CLR 79 39 80.1 63 24% 78 29.89 1008.2
06 17:53 SE 8 10.00 Fair CLR 79 41 26% 78 29.9 1008.4
06 16:53 E 6 10.00 Fair CLR 75.9 41 29% 77 29.91 1008.8
06 15:53 Vrbl 3 10.00 Fair CLR 73 42.1 33% 29.93 1009.7
06 14:53 Vrbl 3 10.00 Fair CLR 71.1 42.1 35% 29.95 1010.3
06 13:53 E 7 10.00 Fair CLR 66.9 44.1 44% 29.97 1011.5
06 12:53 NE 10 10.00 Fair CLR 63 45 63 54 52% 29.99 1012.3
06 11:53 NE 13 10.00 Fair CLR 59 44.1 58% 30 1012.6
06 10:53 NE 14 10.00 Fair CLR 55.9 44.1 65% 30 1012.6
06 09:53 NE 13 4.00 Fair with Haze CLR 55 43 64% 29.98 1012.1
06 08:53 NE 17 10.00 Fair CLR 55 44.1 67% 29.97 1011.4
06 07:53 NE 10 10.00 Fair CLR 55.9 46 70% 29.92 1009.6
06 06:53 NE 9 10.00 Fair CLR 60.1 46.9 70 60.1 62% 29.88 1008.0
06 05:53 E 5 10.00 Fair CLR 62.1 46.9 58% 29.88 1007.7
06 04:53 E 15 10.00 Fair CLR 66 46.9 50% 29.86 1006.6
06 03:53 E 6 10.00 Fair CLR 68 45 44% 29.84 1005.9
06 02:53 SW 5 8.00 Fair CLR 70 44.1 39% 29.84 1005.7
06 01:53 W 5 10.00 Fair CLR 66.9 48.9 53% 29.84 1005.9
06 00:53 Calm 10.00 Fair CLR 68 46 81 68 45% 29.84 1005.8
05 23:53 W 3 10.00 Fair CLR 71.1 42.1 35% 29.83 1005.5
05 22:53 S 7 10.00 Fair CLR 71.1 44.1 38% 29.81 1005.1
05 21:53 SE 8 10.00 Fair CLR 73 43 34% 29.79 1004.3
05 20:53 NW 6 10.00 Fair CLR 75.9 41 29% 77 29.78 1004.0
05 19:53 NW 14 10.00 Fair CLR 79 39.9 25% 78 29.77 1003.9
05 18:53 W 21 10.00 Fair and Breezy CLR 81 37.9 87.1 81 21% 79 29.79 1004.5
05 17:53 W 25 G 36 10.00 Fair and Breezy CLR 82 37.9 21% 80 29.79 1004.3
05 16:53 W 23 G 31 10.00 Fair and Breezy CLR 84 37 19% 81 29.79 1004.4
05 15:53 W 13 G 25 10.00 Fair CLR 84.9 36 17% 82 29.8 1004.3
05 14:53 W 15 G 25 10.00 Fair CLR 84 36 18% 81 29.81 1004.7
05 13:53 W 21 G 25 10.00 Fair and Breezy CLR 84.9 37.9 19% 82 29.82 1005.0
05 12:53 NW 21 G 28 10.00 Fair and Breezy CLR 86 39 86 64.9 19% 83 29.83 1005.1
05 11:53 W 22 G 29 10.00 Fair and Breezy CLR 82.9 37.9 20% 81 29.83 1005.3
05 10:53 W 15 10.00 Fair CLR 80.1 37.9 22% 79 29.83 1005.1
05 09:53 W 9 10.00 Fair CLR 77 44.1 31% 78 29.82 1004.7
05 08:53 W 9 10.00 Fair CLR 71.1 52 51% 29.8 1004.4
05 07:53 SW 7 10.00 Fair CLR 66 57.9 75% 29.79 1004.1
05 06:53 SW 8 10.00 Fair CLR 66 57.9 73.9 64.9 75% 29.77 1003.3
05 05:53 SW 8 10.00 Fair CLR 66 59 78% 29.76 1003.2
05 04:53 SW 10 10.00 Fair CLR 68 59 73% 29.76 1002.8
05 03:53 S 12 10.00 Fair CLR 68 59 73% 29.76 1002.8
05 02:53 S 14 10.00 Fair CLR 70 57.9 66% 29.76 1002.8
05 01:53 S 15 10.00 Fair CLR 72 57.9 61% 29.78 1003.4
05 00:53 S 15 10.00 Fair CLR 73.9 55.9 88 73.9 54% 29.78 1003.6
04 23:53 S 15 G 25 10.00 Fair CLR 75.9 53.1 45% 78 29.79 1003.8
04 22:53 SW 13 10.00 Fair CLR 82 30.9 16% 80 29.78 1003.4
04 21:53 SW 15 10.00 Fair CLR 82.9 30 15% 80 29.76 1003.0
04 20:53 SW 14 10.00 Fair CLR 84 28.9 13% 81 29.75 1002.8
04 19:53 SW 21 10.00 Fair and Breezy CLR 87.1 25 10% 84 29.73 1002.4
04 18:53 SW 22 G 30 10.00 Fair and Breezy CLR 88 28 90 82.9 11% 84 29.75 1003.1
04 17:53 SW 17 G 29 10.00 Fair CLR 88 34 15% 84 29.76 1003.4
04 16:53 W 24 G 35 10.00 Fair and Breezy CLR 89.1 28 11% 85 29.78 1003.9
04 15:53 SW 23 G 35 10.00 Fair and Breezy CLR 88 30 12% 84 29.81 1004.9
04 14:53 SW 15 G 23 10.00 Fair CLR 88 43 21% 85 29.84 1005.8
04 13:53 SW 15 G 24 10.00 Fair CLR 84.9 46.9 27% 82 29.86 1006.7
04 12:53 SW 17 10.00 Fair CLR 84 50 84 61 31% 82 29.88 1007.5
04 11:53 SW 12 10.00 Fair CLR 79 50 36% 79 29.89 1008.0
04 10:53 SW 12 10.00 Fair CLR 75.9 51.1 42% 78 29.9 1008.5
04 09:53 S 15 10.00 Fair CLR 71.1 50 47% 29.91 1008.9
04 08:53 S 12 10.00 Fair CLR 66 50 56% 29.9 1008.9
04 07:53 S 9 10.00 Fair CLR 62.1 48.9 62% 29.89 1008.4
04 06:53 S 7 10.00 Fair CLR 61 48.9 64.9 61 65% 29.87 1007.6
04 05:53 S 8 10.00 Fair CLR 61 48.9 65% 29.87 1007.9
04 04:53 S 9 10.00 Fair CLR 62.1 48.9 62% 29.88 1008.1
04 03:53 S 13 10.00 Fair CLR 63 48 58% 29.9 1008.7
04 02:53 S 15 10.00 Fair CLR 64 48 56% 29.92 1009.6
04 01:53 S 14 10.00 Fair CLR 64.9 48.9 56% 29.94 1010.2
04 00:53 S 16 10.00 Fair CLR 64.9 48 75.9 64.9 54% 29.96 1010.9
03 23:53 S 14 10.00 Fair CLR 66 48 52% 29.97 1011.4
03 22:53 S 13 10.00 Fair CLR 66.9 46.9 49% 29.99 1011.9
03 21:53 S 17 10.00 Fair CLR 70 46 42% 29.98 1011.7
03 20:53 S 14 10.00 Fair CLR 71.1 44.1 38% 29.98 1011.6
03 19:53 S 16 10.00 Fair CLR 73.9 43 33% 29.97 1011.6
Date Time (cdt) Wind (mph) Vis. (mi.) Weather Sky Cond. Air Dwpt Max. Min. Relative Humidity Wind Chill (°F) Heat Index (°F) altimeter (in) sea level (mb) 1 hr 3 hr 6 hr
6 hour
Temperature (ºF) Pressure Precipitation (in)